Time;durP1;ratioP1;P1;durP2;ratioP2;P2;SDS_P1;SDS_P2;PMS_P1;PMS_P2;Temp;Humidity;BMP_temperature;BMP_pressure;BME280_temperature;BME280_humidity;BME280_pressure;Samples;Min_cycle;Max_cycle;Signal;HPM_P1;HPM_P2
2023/03/23 00:01:19;;;;;;;26.00;14.03;;;;;;;;;;5048048;28;20183;-65
2023/03/23 00:03:45;;;;;;;18.80;12.10;;;;;;;;;;5047774;28;20535;-65
2023/03/23 00:06:16;;;;;;;25.53;11.87;;;;;;;;;;5047401;28;20046;-65
2023/03/23 00:08:46;;;;;;;18.43;11.13;;;;;;;;;;5051244;28;20045;-65
2023/03/23 00:11:16;;;;;;;15.87;10.00;;;;;;;;;;5050640;28;20053;-65
2023/03/23 00:13:43;;;;;;;20.03;10.10;;;;;;;;;;5051573;28;20053;-65
2023/03/23 00:16:17;;;;;;;16.10;9.83;;;;;;;;;;5053490;28;20072;-64
2023/03/23 00:18:43;;;;;;;;;;;;;;;;;;5052630;28;20534;-64
2023/03/23 00:21:09;;;;;;;17.43;9.70;;;;;;;;;;5052076;28;19929;-64
2023/03/23 00:23:35;;;;;;;17.90;9.20;;;;;;;;;;5050089;28;20503;-64
2023/03/23 00:26:01;;;;;;;15.47;8.73;;;;;;;;;;5051392;28;20103;-64
2023/03/23 00:28:28;;;;;;;14.83;8.80;;;;;;;;;;5050964;28;20041;-64
2023/03/23 00:31:08;;;;;;;16.70;8.70;;;;;;;;;;5050707;28;20494;-64
2023/03/23 00:33:38;;;;;;;13.77;8.80;;;;;;;;;;5051273;28;20476;-64
2023/03/23 00:36:08;;;;;;;16.77;8.00;;;;;;;;;;5051428;28;20123;-65
2023/03/23 00:38:34;;;;;;;14.80;8.67;;;;;;;;;;5050544;28;20071;-64
2023/03/23 00:41:02;;;;;;;14.00;8.87;;;;;;;;;;5051688;28;20049;-64
2023/03/23 00:43:28;;;;;;;15.77;8.50;;;;;;;;;;5050477;28;20079;-64
2023/03/23 00:45:55;;;;;;;12.80;7.63;;;;;;;;;;5049729;28;20044;-64
2023/03/23 00:48:21;;;;;;;10.30;6.73;;;;;;;;;;5050911;28;20041;-64
2023/03/23 00:50:47;;;;;;;12.00;6.97;;;;;;;;;;5051269;28;20128;-64
2023/03/23 00:53:14;;;;;;;10.13;5.83;;;;;;;;;;5051451;28;20040;-64
2023/03/23 00:55:43;;;;;;;10.50;5.17;;;;;;;;;;5050498;28;20056;-65
2023/03/23 00:58:10;;;;;;;8.57;5.30;;;;;;;;;;5049614;28;20091;-64
2023/03/23 01:00:37;;;;;;;11.70;4.67;;;;;;;;;;5050504;28;20061;-64
2023/03/23 01:03:04;;;;;;;7.80;5.13;;;;;;;;;;5051538;28;20091;-64
2023/03/23 01:05:31;;;;;;;8.83;5.10;;;;;;;;;;5050110;28;20060;-64
2023/03/23 01:08:01;;;;;;;10.83;5.23;;;;;;;;;;5050905;28;20174;-64
2023/03/23 01:10:27;;;;;;;11.43;5.47;;;;;;;;;;5048668;28;20116;-64
2023/03/23 01:12:54;;;;;;;10.07;5.47;;;;;;;;;;5050277;28;20049;-64
2023/03/23 01:15:21;;;;;;;10.97;5.30;;;;;;;;;;5050895;28;20052;-64
2023/03/23 01:17:47;;;;;;;9.80;4.20;;;;;;;;;;5050098;28;20052;-64
2023/03/23 01:20:14;;;;;;;5.27;3.70;;;;;;;;;;5049087;28;20076;-64
2023/03/23 01:22:41;;;;;;;8.77;3.57;;;;;;;;;;5049483;28;20801;-64
2023/03/23 01:25:07;;;;;;;10.97;4.67;;;;;;;;;;5049461;28;20077;-64
2023/03/23 01:27:34;;;;;;;8.87;4.13;;;;;;;;;;5048374;28;20053;-64
2023/03/23 01:30:00;;;;;;;8.07;4.00;;;;;;;;;;5050180;28;20053;-64
2023/03/23 01:32:26;;;;;;;10.53;4.07;;;;;;;;;;5049649;28;20052;-64
2023/03/23 01:34:54;;;;;;;8.07;4.60;;;;;;;;;;5050256;28;20045;-64
2023/03/23 01:37:20;;;;;;;7.93;4.57;;;;;;;;;;5050353;28;20048;-63
2023/03/23 01:39:46;;;;;;;9.13;4.33;;;;;;;;;;5048606;28;20414;-63
2023/03/23 01:42:12;;;;;;;7.83;4.53;;;;;;;;;;5049654;28;20033;-63
2023/03/23 01:44:38;;;;;;;10.17;4.07;;;;;;;;;;5050845;28;20053;-63
2023/03/23 01:47:04;;;;;;;8.90;4.83;;;;;;;;;;5050864;28;20041;-63
2023/03/23 01:49:36;;;;;;;9.70;4.10;;;;;;;;;;5050394;28;20160;-63
2023/03/23 01:52:05;;;;;;;7.70;4.07;;;;;;;;;;5049674;28;20102;-63
2023/03/23 01:54:31;;;;;;;7.97;4.00;;;;;;;;;;5048883;28;20045;-63
2023/03/23 01:56:59;;;;;;;8.40;4.23;;;;;;;;;;5050798;28;20466;-63
2023/03/23 01:59:27;;;;;;;8.47;3.50;;;;;;;;;;5050293;28;20049;-63
2023/03/23 02:01:53;;;;;;;10.07;4.07;;;;;;;;;;5049788;28;20080;-63
2023/03/23 02:04:21;;;;;;;8.70;4.30;;;;;;;;;;5050355;28;20044;-63
2023/03/23 02:06:48;;;;;;;5.47;3.67;;;;;;;;;;5049290;28;20488;-64
2023/03/23 02:09:17;;;;;;;7.93;3.57;;;;;;;;;;5049962;28;20041;-62
2023/03/23 02:11:43;;;;;;;8.60;4.17;;;;;;;;;;5049567;28;20045;-62
2023/03/23 02:14:09;;;;;;;6.10;3.70;;;;;;;;;;5050232;28;20174;-62
2023/03/23 02:16:47;;;;;;;8.37;4.00;;;;;;;;;;5049292;28;20037;-64
2023/03/23 02:19:42;;;;;;;8.73;4.47;;;;;;;;;;5050205;28;20053;-62
2023/03/23 02:22:27;;;;;;;8.30;3.73;;;;;;;;;;5050200;28;20049;-61
2023/03/23 02:25:28;;;;;;;8.13;3.77;;;;;;;;;;5049510;28;20110;-64
2023/03/23 02:27:54;;;;;;;6.27;3.47;;;;;;;;;;5030641;28;20059;-63
2023/03/23 02:30:23;;;;;;;10.87;3.53;;;;;;;;;;5048540;28;20799;-63
2023/03/23 02:33:09;;;;;;;6.50;3.00;;;;;;;;;;5049848;28;20048;-63
2023/03/23 02:35:37;;;;;;;7.10;3.13;;;;;;;;;;5049142;28;20037;-63
2023/03/23 02:38:09;;;;;;;4.90;3.07;;;;;;;;;;5049697;28;20099;-64
2023/03/23 02:40:42;;;;;;;7.77;3.00;;;;;;;;;;5049414;28;20044;-63
2023/03/23 02:43:11;;;;;;;6.20;2.65;;;;;;;;;;5049862;28;20140;-63
2023/03/23 02:45:38;;;;;;;7.53;3.53;;;;;;;;;;5049547;28;20449;-63
2023/03/23 02:48:04;;;;;;;11.53;3.37;;;;;;;;;;5049589;28;20041;-63
2023/03/23 02:50:31;;;;;;;6.10;3.10;;;;;;;;;;5049020;28;20044;-63
2023/03/23 02:52:58;;;;;;;8.03;3.00;;;;;;;;;;5049327;28;20740;-63
2023/03/23 02:55:25;;;;;;;9.47;3.20;;;;;;;;;;5049787;28;20041;-63
2023/03/23 02:57:53;;;;;;;7.37;3.37;;;;;;;;;;5049279;28;20049;-64
2023/03/23 03:00:19;;;;;;;7.87;3.90;;;;;;;;;;5048911;28;20518;-63
2023/03/23 03:02:53;;;;;;;7.27;3.40;;;;;;;;;;5049159;28;20152;-63
2023/03/23 03:05:19;;;;;;;;;;;;;;;;;;5049020;28;20048;-64
2023/03/23 03:07:57;;;;;;;10.27;4.13;;;;;;;;;;5048487;28;20558;-63
2023/03/23 03:10:26;;;;;;;5.63;3.13;;;;;;;;;;5047440;28;20103;-64
2023/03/23 03:12:58;;;;;;;7.17;3.67;;;;;;;;;;5049294;28;20048;-63
2023/03/23 03:15:27;;;;;;;9.47;3.80;;;;;;;;;;5049232;28;20482;-64
2023/03/23 03:18:06;;;;;;;8.93;4.30;;;;;;;;;;5049284;28;20135;-63
2023/03/23 03:20:33;;;;;;;6.73;4.00;;;;;;;;;;5048974;28;20056;-63
2023/03/23 03:22:59;;;;;;;7.57;3.87;;;;;;;;;;5048969;28;20124;-63
2023/03/23 03:25:27;;;;;;;6.53;3.53;;;;;;;;;;5048844;28;20045;-63
2023/03/23 03:27:53;;;;;;;6.40;3.60;;;;;;;;;;5048593;28;20065;-63
2023/03/23 03:30:21;;;;;;;6.07;3.77;;;;;;;;;;5048756;28;20128;-63
2023/03/23 03:32:50;;;;;;;7.70;3.63;;;;;;;;;;5048863;28;20041;-63
2023/03/23 03:35:17;;;;;;;5.40;3.83;;;;;;;;;;5049067;28;20106;-63
2023/03/23 03:37:43;;;;;;;6.80;4.20;;;;;;;;;;5048443;28;20415;-63
2023/03/23 03:40:11;;;;;;;4.90;3.73;;;;;;;;;;5048370;28;20045;-63
2023/03/23 03:42:42;;;;;;;7.87;3.60;;;;;;;;;;5052998;28;20111;-63
2023/03/23 03:45:09;;;;;;;8.03;3.90;;;;;;;;;;5055590;28;20545;-63
2023/03/23 03:47:35;;;;;;;9.50;4.07;;;;;;;;;;5054972;28;20483;-63
2023/03/23 03:50:01;;;;;;;9.70;4.27;;;;;;;;;;5055434;28;20044;-63
2023/03/23 03:52:28;;;;;;;9.60;4.07;;;;;;;;;;5055424;28;20045;-63
2023/03/23 03:54:55;;;;;;;6.43;4.07;;;;;;;;;;5055563;28;20049;-63
2023/03/23 03:57:21;;;;;;;8.43;4.23;;;;;;;;;;5054864;28;20067;-63
2023/03/23 03:59:47;;;;;;;7.70;4.43;;;;;;;;;;5054979;28;20499;-63
2023/03/23 04:02:16;;;;;;;7.03;3.87;;;;;;;;;;5055703;28;20044;-63
2023/03/23 04:04:43;;;;;;;8.53;4.60;;;;;;;;;;5054797;28;20060;-63
2023/03/23 04:07:10;;;;;;;9.60;3.70;;;;;;;;;;5055129;28;20462;-63
2023/03/23 04:09:38;;;;;;;6.40;3.83;;;;;;;;;;5054978;28;20041;-63
2023/03/23 04:12:04;;;;;;;10.47;3.90;;;;;;;;;;5054579;28;20462;-63
2023/03/23 04:14:30;;;;;;;7.10;4.00;;;;;;;;;;5054985;28;20084;-63
2023/03/23 04:16:58;;;;;;;7.27;3.80;;;;;;;;;;5055353;28;20045;-63
2023/03/23 04:19:25;;;;;;;10.40;4.60;;;;;;;;;;5054955;28;20044;-63
2023/03/23 04:21:51;;;;;;;10.30;5.10;;;;;;;;;;5054669;28;20518;-63
2023/03/23 04:24:20;;;;;;;11.30;4.70;;;;;;;;;;5054562;28;20044;-63
2023/03/23 04:26:47;;;;;;;9.23;5.03;;;;;;;;;;5054793;28;20072;-63
2023/03/23 04:29:13;;;;;;;8.87;4.33;;;;;;;;;;5054955;28;20064;-63
2023/03/23 04:31:40;;;;;;;9.57;4.70;;;;;;;;;;5054793;28;20045;-63
2023/03/23 04:34:06;;;;;;;7.57;4.80;;;;;;;;;;5055011;28;20694;-63
2023/03/23 04:36:35;;;;;;;7.83;4.73;;;;;;;;;;5054808;28;20047;-63
2023/03/23 04:39:03;;;;;;;11.47;5.47;;;;;;;;;;5054006;28;20055;-63
2023/03/23 04:41:29;;;;;;;9.10;5.63;;;;;;;;;;5055082;28;20037;-63
2023/03/23 04:43:56;;;;;;;8.23;4.40;;;;;;;;;;5055014;28;20510;-63
2023/03/23 04:46:22;;;;;;;11.70;5.10;;;;;;;;;;5054911;28;20110;-63
2023/03/23 04:48:48;;;;;;;10.23;6.03;;;;;;;;;;5054696;28;20045;-65
2023/03/23 04:51:14;;;;;;;19.10;6.40;;;;;;;;;;5054442;28;20049;-64
2023/03/23 04:53:41;;;;;;;13.03;6.90;;;;;;;;;;5051432;28;20667;-64
2023/03/23 04:56:07;;;;;;;19.73;7.83;;;;;;;;;;5051409;28;20049;-64
2023/03/23 04:58:33;;;;;;;15.97;8.73;;;;;;;;;;5051786;28;20041;-65
2023/03/23 05:01:00;;;;;;;24.23;9.07;;;;;;;;;;5050200;28;20093;-65
2023/03/23 05:03:26;;;;;;;43.43;11.17;;;;;;;;;;5051394;28;20426;-65
2023/03/23 05:05:53;;;;;;;57.33;11.33;;;;;;;;;;5051347;28;20082;-66
2023/03/23 05:08:26;;;;;;;51.73;13.07;;;;;;;;;;5051591;28;20072;-66
2023/03/23 05:10:56;;;;;;;23.17;9.33;;;;;;;;;;5051577;28;20845;-65
2023/03/23 05:13:22;;;;;;;11.73;5.33;;;;;;;;;;5050033;28;20052;-64
2023/03/23 05:15:48;;;;;;;12.70;6.67;;;;;;;;;;5051167;28;20041;-64
2023/03/23 05:18:14;;;;;;;13.73;7.10;;;;;;;;;;5049926;28;20545;-64
2023/03/23 05:20:41;;;;;;;17.53;6.80;;;;;;;;;;5051397;28;20056;-64
2023/03/23 05:23:08;;;;;;;15.00;5.87;;;;;;;;;;5051189;28;20049;-63
2023/03/23 05:25:36;;;;;;;12.57;5.60;;;;;;;;;;5051370;28;20071;-63
2023/03/23 05:28:03;;;;;;;15.57;6.30;;;;;;;;;;5051120;28;20065;-63
2023/03/23 05:30:29;;;;;;;19.00;7.17;;;;;;;;;;5050550;28;20053;-63
2023/03/23 05:32:55;;;;;;;15.57;6.03;;;;;;;;;;5051003;28;20102;-64
2023/03/23 05:35:22;;;;;;;12.20;5.07;;;;;;;;;;5050761;28;20529;-65
2023/03/23 05:37:48;;;;;;;11.70;5.07;;;;;;;;;;5049401;28;20085;-64
2023/03/23 05:40:14;;;;;;;17.23;6.50;;;;;;;;;;5050825;28;20049;-64
2023/03/23 05:42:41;;;;;;;13.87;4.67;;;;;;;;;;5048835;28;20051;-65
2023/03/23 05:45:08;;;;;;;10.67;4.23;;;;;;;;;;5050742;28;20175;-65
2023/03/23 05:47:34;;;;;;;9.27;4.43;;;;;;;;;;5050459;28;20491;-64
2023/03/23 05:50:00;;;;;;;12.50;4.03;;;;;;;;;;5049743;28;20045;-65
2023/03/23 05:52:27;;;;;;;10.57;3.83;;;;;;;;;;5050756;28;20049;-64
2023/03/23 05:54:53;;;;;;;9.73;3.30;;;;;;;;;;5050269;28;20048;-64
2023/03/23 05:57:22;;;;;;;9.27;3.40;;;;;;;;;;5050001;28;20049;-65
2023/03/23 05:59:48;;;;;;;11.00;3.23;;;;;;;;;;5048874;28;20064;-64
2023/03/23 06:02:14;;;;;;;9.57;3.50;;;;;;;;;;5050820;28;20049;-65
2023/03/23 06:04:41;;;;;;;9.23;3.67;;;;;;;;;;5050030;28;20048;-64
2023/03/23 06:07:08;;;;;;;12.07;3.70;;;;;;;;;;5050458;28;20041;-64
2023/03/23 06:09:34;;;;;;;9.00;2.80;;;;;;;;;;5050102;28;20052;-65
2023/03/23 06:12:00;;;;;;;10.97;3.80;;;;;;;;;;5049394;28;20045;-64
2023/03/23 06:14:26;;;;;;;10.20;3.10;;;;;;;;;;5049742;28;20518;-64
2023/03/23 06:16:52;;;;;;;18.03;4.70;;;;;;;;;;5047186;28;20057;-64
2023/03/23 06:19:18;;;;;;;10.30;3.00;;;;;;;;;;5039441;28;20458;-65
2023/03/23 06:21:44;;;;;;;9.50;3.80;;;;;;;;;;5055818;28;20094;-65
2023/03/23 06:24:10;;;;;;;15.17;3.93;;;;;;;;;;5033475;28;20140;-66
2023/03/23 06:26:38;;;;;;;18.10;4.57;;;;;;;;;;5044737;28;20141;-64
2023/03/23 06:29:10;;;;;;;10.57;4.40;;;;;;;;;;5040147;28;20051;-64
2023/03/23 06:31:48;;;;;;;14.48;4.60;;;;;;;;;;5039023;28;20894;-64
2023/03/23 06:34:14;;;;;;;18.17;4.97;;;;;;;;;;5038582;28;20107;-64
2023/03/23 06:36:40;;;;;;;18.70;5.53;;;;;;;;;;5040793;28;20183;-65
2023/03/23 06:39:06;;;;;;;14.30;4.63;;;;;;;;;;5039535;28;20037;-64
2023/03/23 06:41:33;;;;;;;15.67;4.60;;;;;;;;;;5039600;28;20041;-65
2023/03/23 06:43:59;;;;;;;18.53;6.30;;;;;;;;;;5052615;28;20072;-65
2023/03/23 06:46:25;;;;;;;17.90;5.57;;;;;;;;;;5039337;28;20040;-64
2023/03/23 06:48:51;;;;;;;15.27;4.23;;;;;;;;;;5039229;28;20048;-64
2023/03/23 06:51:18;;;;;;;15.07;4.30;;;;;;;;;;5037808;28;20048;-64
2023/03/23 06:53:45;;;;;;;20.47;6.30;;;;;;;;;;5034907;28;20037;-65
2023/03/23 06:56:12;;;;;;;19.27;5.43;;;;;;;;;;5040100;28;20458;-65
2023/03/23 06:58:38;;;;;;;20.50;5.60;;;;;;;;;;5040212;28;20123;-65
2023/03/23 07:01:05;;;;;;;16.67;5.87;;;;;;;;;;5038199;28;20048;-66
2023/03/23 07:03:31;;;;;;;21.03;5.53;;;;;;;;;;5038963;28;20448;-66
2023/03/23 07:05:58;;;;;;;23.47;5.47;;;;;;;;;;5039296;28;20076;-65
2023/03/23 07:08:24;;;;;;;15.70;4.80;;;;;;;;;;5039660;28;20121;-65
2023/03/23 07:10:54;;;;;;;18.97;5.60;;;;;;;;;;5039908;28;20052;-65
2023/03/23 07:13:21;;;;;;;18.83;6.50;;;;;;;;;;5043873;28;20090;-65
2023/03/23 07:15:48;;;;;;;19.37;4.67;;;;;;;;;;5039760;28;20394;-65
2023/03/23 07:18:14;;;;;;;12.80;4.47;;;;;;;;;;5044752;28;20091;-65
2023/03/23 07:20:40;;;;;;;17.80;5.17;;;;;;;;;;5035636;28;20053;-64
2023/03/23 07:23:06;;;;;;;14.13;4.50;;;;;;;;;;5042671;28;20116;-64
2023/03/23 07:25:33;;;;;;;18.67;4.53;;;;;;;;;;5042046;28;20049;-64
2023/03/23 07:28:03;;;;;;;15.30;4.17;;;;;;;;;;5038912;28;20060;-64
2023/03/23 07:30:30;;;;;;;16.93;4.83;;;;;;;;;;5028806;28;20049;-64
2023/03/23 07:32:56;;;;;;;15.87;4.67;;;;;;;;;;5028876;28;20096;-64
2023/03/23 07:35:22;;;;;;;16.67;3.77;;;;;;;;;;5038059;28;20045;-64
2023/03/23 07:37:49;;;;;;;13.00;3.43;;;;;;;;;;5043996;28;20049;-64
2023/03/23 07:40:15;;;;;;;10.50;3.33;;;;;;;;;;5046961;28;20056;-65
2023/03/23 07:42:43;;;;;;;15.37;3.70;;;;;;;;;;5047734;28;20045;-64
2023/03/23 07:45:10;;;;;;;16.93;4.23;;;;;;;;;;5047707;28;20064;-63
2023/03/23 07:47:36;;;;;;;15.10;3.10;;;;;;;;;;5047323;28;20247;-64
2023/03/23 07:50:02;;;;;;;17.07;5.13;;;;;;;;;;5047477;28;20080;-63
2023/03/23 07:52:30;;;;;;;22.27;4.07;;;;;;;;;;5048432;28;20056;-63
2023/03/23 07:54:56;;;;;;;16.60;4.67;;;;;;;;;;5047229;28;20503;-64
2023/03/23 07:57:22;;;;;;;18.60;4.83;;;;;;;;;;5046609;28;20047;-64
2023/03/23 07:59:48;;;;;;;22.07;5.43;;;;;;;;;;5048288;28;20053;-64
2023/03/23 08:02:14;;;;;;;23.27;5.20;;;;;;;;;;5032209;28;20049;-63
2023/03/23 08:04:42;;;;;;;22.97;5.50;;;;;;;;;;5028234;28;20042;-63
2023/03/23 08:07:12;;;;;;;17.23;5.03;;;;;;;;;;5036885;28;20442;-63
2023/03/23 08:09:38;;;;;;;19.47;6.30;;;;;;;;;;5048731;28;20041;-64
2023/03/23 08:12:05;;;;;;;25.17;5.07;;;;;;;;;;5048061;28;20052;-64
2023/03/23 08:14:31;;;;;;;20.57;4.73;;;;;;;;;;5042340;28;20045;-64
2023/03/23 08:16:57;;;;;;;25.77;4.80;;;;;;;;;;5034835;28;20414;-64
2023/03/23 08:19:23;;;;;;;22.13;4.97;;;;;;;;;;5028155;28;20168;-64
2023/03/23 08:21:50;;;;;;;22.47;4.97;;;;;;;;;;5028258;28;20477;-64
2023/03/23 08:24:16;;;;;;;24.97;6.17;;;;;;;;;;5031782;28;20048;-64
2023/03/23 08:26:42;;;;;;;21.17;6.03;;;;;;;;;;5046957;28;20145;-64
2023/03/23 08:29:08;;;;;;;14.50;5.67;;;;;;;;;;5047035;28;20091;-64
2023/03/23 08:31:37;;;;;;;18.50;5.10;;;;;;;;;;5071082;28;20052;-64
2023/03/23 08:34:04;;;;;;;21.63;5.27;;;;;;;;;;5070578;28;20056;-63
2023/03/23 08:36:31;;;;;;;20.53;4.73;;;;;;;;;;5069967;28;20059;-64
2023/03/23 08:38:58;;;;;;;13.27;4.23;;;;;;;;;;5070037;28;20534;-64
2023/03/23 08:41:24;;;;;;;21.50;5.10;;;;;;;;;;5069578;28;20045;-64
2023/03/23 08:43:52;;;;;;;20.77;6.07;;;;;;;;;;5051891;28;20077;-64
2023/03/23 08:46:19;;;;;;;19.93;5.03;;;;;;;;;;5046326;28;20519;-64
2023/03/23 08:48:45;;;;;;;23.50;5.87;;;;;;;;;;5050276;28;20131;-64
2023/03/23 08:51:11;;;;;;;20.60;5.00;;;;;;;;;;5048834;28;20179;-64
2023/03/23 08:53:38;;;;;;;19.03;4.70;;;;;;;;;;5047126;28;20048;-64
2023/03/23 08:56:06;;;;;;;21.87;6.90;;;;;;;;;;5049628;28;20041;-64
2023/03/23 08:58:33;;;;;;;22.53;4.93;;;;;;;;;;5049971;28;20372;-63
2023/03/23 09:00:59;;;;;;;20.00;4.90;;;;;;;;;;5049700;28;20044;-64
2023/03/23 09:03:26;;;;;;;19.53;5.27;;;;;;;;;;5049933;28;20167;-64
2023/03/23 09:05:53;;;;;;;30.53;5.70;;;;;;;;;;5050358;28;20094;-64
2023/03/23 09:08:19;;;;;;;19.73;5.53;;;;;;;;;;5051195;28;20138;-64
2023/03/23 09:10:45;;;;;;;17.33;4.17;;;;;;;;;;5050882;28;20049;-64
2023/03/23 09:13:12;;;;;;;17.67;4.80;;;;;;;;;;5051107;28;20640;-64
2023/03/23 09:15:38;;;;;;;23.83;5.17;;;;;;;;;;5050919;28;20048;-64
2023/03/23 09:18:04;;;;;;;16.13;4.83;;;;;;;;;;5051160;28;20049;-63
2023/03/23 09:20:30;;;;;;;18.43;4.90;;;;;;;;;;5050757;28;20060;-64
2023/03/23 09:22:57;;;;;;;19.83;5.70;;;;;;;;;;5051189;28;20123;-64
2023/03/23 09:25:25;;;;;;;19.07;5.13;;;;;;;;;;5049893;28;20098;-63
2023/03/23 09:27:53;;;;;;;17.83;6.10;;;;;;;;;;5050597;28;20424;-64
2023/03/23 09:30:21;;;;;;;13.57;4.27;;;;;;;;;;5050919;28;20080;-64
2023/03/23 09:32:48;;;;;;;14.53;4.37;;;;;;;;;;5050952;28;20060;-63
2023/03/23 09:35:16;;;;;;;13.13;3.13;;;;;;;;;;5050996;28;20130;-64
2023/03/23 09:37:44;;;;;;;17.77;3.63;;;;;;;;;;5049578;28;20554;-64
2023/03/23 09:40:22;;;;;;;13.40;4.23;;;;;;;;;;5048788;28;20073;-64
2023/03/23 09:43:01;;;;;;;16.53;4.87;;;;;;;;;;5050518;28;20045;-64
2023/03/23 09:45:41;;;;;;;15.13;4.03;;;;;;;;;;5050293;28;20056;-64
2023/03/23 09:48:25;;;;;;;15.27;3.73;;;;;;;;;;5050625;28;20045;-64
2023/03/23 09:50:55;;;;;;;14.43;3.57;;;;;;;;;;5050215;28;20045;-64
2023/03/23 09:53:56;;;;;;;13.17;3.43;;;;;;;;;;5034180;28;20049;-64
2023/03/23 09:56:26;;;;;;;15.57;3.87;;;;;;;;;;5047786;28;20471;-64
2023/03/23 09:58:54;;;;;;;11.83;3.37;;;;;;;;;;5049793;28;20852;-64
2023/03/23 10:01:23;;;;;;;15.83;3.60;;;;;;;;;;5050284;28;20049;-64
2023/03/23 10:03:52;;;;;;;15.20;3.17;;;;;;;;;;5050642;28;20057;-64
2023/03/23 10:06:18;;;;;;;8.53;3.10;;;;;;;;;;5050128;28;20045;-64
2023/03/23 10:08:46;;;;;;;11.83;4.73;;;;;;;;;;5049607;28;20045;-61
2023/03/23 10:11:12;;;;;;;10.00;2.80;;;;;;;;;;5050181;28;20067;-64
2023/03/23 10:13:38;;;;;;;10.83;2.97;;;;;;;;;;5050125;28;20041;-64
2023/03/23 10:16:08;;;;;;;8.37;2.47;;;;;;;;;;5050004;28;20102;-64
2023/03/23 10:18:38;;;;;;;10.50;3.03;;;;;;;;;;5049731;28;20045;-64
2023/03/23 10:21:06;;;;;;;9.83;3.00;;;;;;;;;;5049754;28;20048;-64
2023/03/23 10:23:53;;;;;;;10.97;3.07;;;;;;;;;;5049332;28;20041;-64
2023/03/23 10:26:26;;;;;;;11.03;3.33;;;;;;;;;;5049838;28;20092;-64
2023/03/23 10:28:55;;;;;;;10.70;2.93;;;;;;;;;;5049321;28;20131;-64
2023/03/23 10:31:28;;;;;;;10.53;3.43;;;;;;;;;;5049823;28;20426;-61
2023/03/23 10:33:59;;;;;;;8.90;2.78;;;;;;;;;;5049727;28;20049;-61
2023/03/23 10:36:25;;;;;;;18.37;3.20;;;;;;;;;;5048927;28;20530;-61
2023/03/23 10:38:55;;;;;;;13.13;2.73;;;;;;;;;;5049272;28;20048;-61
2023/03/23 10:41:21;;;;;;;15.30;2.70;;;;;;;;;;5049513;28;20148;-62
2023/03/23 10:43:50;;;;;;;12.03;2.70;;;;;;;;;;5049491;28;20099;-61
2023/03/23 10:46:16;;;;;;;9.70;2.97;;;;;;;;;;5049409;28;20077;-62
2023/03/23 10:48:43;;;;;;;16.23;3.43;;;;;;;;;;5047400;28;20573;-62
2023/03/23 10:51:12;;;;;;;11.77;2.87;;;;;;;;;;5048606;28;20045;-62
2023/03/23 10:53:59;;;;;;;15.03;2.63;;;;;;;;;;5029454;28;20054;-61
2023/03/23 10:56:27;;;;;;;12.77;2.70;;;;;;;;;;5028704;28;20061;-61
2023/03/23 10:58:53;;;;;;;12.20;3.20;;;;;;;;;;5028940;28;20048;-61
2023/03/23 11:01:21;;;;;;;14.83;2.70;;;;;;;;;;5029391;28;20037;-61
2023/03/23 11:03:49;;;;;;;12.07;2.77;;;;;;;;;;5035846;28;20093;-61
2023/03/23 11:06:26;;;;;;;16.50;3.70;;;;;;;;;;5048945;28;20063;-61
2023/03/23 11:08:57;;;;;;;11.70;2.63;;;;;;;;;;5048167;28;20531;-61
2023/03/23 11:11:28;;;;;;;15.30;2.63;;;;;;;;;;5048926;28;20179;-62
2023/03/23 11:13:59;;;;;;;11.00;2.80;;;;;;;;;;5048759;28;20098;-61
2023/03/23 11:16:32;;;;;;;12.23;3.30;;;;;;;;;;5049056;28;20127;-62
2023/03/23 11:18:59;;;;;;;12.30;2.80;;;;;;;;;;5048907;28;20049;-62
2023/03/23 11:21:26;;;;;;;16.53;3.53;;;;;;;;;;5048209;28;20040;-61
2023/03/23 11:23:54;;;;;;;12.40;3.20;;;;;;;;;;5048861;28;20140;-64
2023/03/23 11:26:28;;;;;;;9.77;3.33;;;;;;;;;;5048759;28;20061;-62
2023/03/23 11:28:59;;;;;;;9.97;2.93;;;;;;;;;;5046709;28;20053;-62
2023/03/23 11:31:31;;;;;;;11.83;3.07;;;;;;;;;;5048784;28;20045;-62
2023/03/23 11:34:00;;;;;;;10.43;2.60;;;;;;;;;;5048229;28;20067;-62
2023/03/23 11:36:31;;;;;;;11.97;3.00;;;;;;;;;;5048608;28;20052;-62
2023/03/23 11:38:57;;;;;;;10.97;2.83;;;;;;;;;;5048283;28;20049;-62
2023/03/23 11:41:24;;;;;;;9.90;2.53;;;;;;;;;;5048076;28;20388;-62
2023/03/23 11:43:52;;;;;;;10.73;2.33;;;;;;;;;;5042429;28;20049;-62
2023/03/23 11:46:37;;;;;;;15.20;2.70;;;;;;;;;;5046960;28;20452;-62
2023/03/23 11:49:05;;;;;;;9.03;2.73;;;;;;;;;;5048009;28;20045;-62
2023/03/23 11:51:31;;;;;;;10.33;2.80;;;;;;;;;;5047908;28;20049;-62
2023/03/23 11:53:57;;;;;;;16.80;3.30;;;;;;;;;;5048576;28;20045;-62
2023/03/23 11:56:26;;;;;;;11.97;4.60;;;;;;;;;;5048465;28;20033;-61
2023/03/23 11:58:53;;;;;;;14.77;3.40;;;;;;;;;;5048287;28;20045;-62
2023/03/23 12:01:31;;;;;;;11.20;2.80;;;;;;;;;;5048059;28;20060;-61
2023/03/23 12:04:16;;;;;;;8.63;3.00;;;;;;;;;;5050125;28;20375;-62
2023/03/23 12:07:01;;;;;;;9.67;2.60;;;;;;;;;;5052277;28;20136;-62
2023/03/23 12:09:46;;;;;;;10.90;3.03;;;;;;;;;;5052379;28;20562;-61
2023/03/23 12:12:17;;;;;;;10.67;2.40;;;;;;;;;;5052147;28;20056;-61
2023/03/23 12:14:56;;;;;;;12.77;3.07;;;;;;;;;;5051422;28;20045;-61
2023/03/23 12:17:41;;;;;;;9.77;2.67;;;;;;;;;;5041523;28;20113;-61
2023/03/23 12:20:12;;;;;;;12.60;2.97;;;;;;;;;;5039081;28;20057;-61
2023/03/23 12:23:08;;;;;;;11.77;3.13;;;;;;;;;;5051099;28;21336;-61
2023/03/23 12:25:43;;;;;;;12.07;3.27;;;;;;;;;;5052293;28;20049;-61
2023/03/23 12:28:18;;;;;;;13.30;3.50;;;;;;;;;;5052831;28;20426;-61
2023/03/23 12:30:47;;;;;;;6.83;1.90;;;;;;;;;;5051463;28;20053;-61
2023/03/23 12:33:29;;;;;;;15.83;3.10;;;;;;;;;;5051802;28;20049;-61
2023/03/23 12:36:01;;;;;;;10.87;3.13;;;;;;;;;;5052057;28;20053;-61
2023/03/23 12:38:39;;;;;;;13.67;2.73;;;;;;;;;;5051160;28;20095;-61
2023/03/23 12:41:15;;;;;;;12.60;2.57;;;;;;;;;;5050612;28;20346;-61
2023/03/23 12:44:10;;;;;;;15.10;3.27;;;;;;;;;;5051470;28;20056;-61
2023/03/23 12:46:45;;;;;;;10.17;3.07;;;;;;;;;;5045418;28;20057;-61
2023/03/23 12:49:15;;;;;;;13.03;3.90;;;;;;;;;;5037616;28;20041;-61
2023/03/23 12:51:57;;;;;;;15.70;3.00;;;;;;;;;;5031529;28;20098;-61
2023/03/23 12:54:23;;;;;;;10.70;2.93;;;;;;;;;;5033376;28;20045;-61
2023/03/23 12:57:07;;;;;;;9.63;3.63;;;;;;;;;;5050353;28;20041;-62
2023/03/23 12:59:35;;;;;;;13.30;3.23;;;;;;;;;;5050255;28;20041;-61
2023/03/23 13:02:11;;;;;;;9.23;2.50;;;;;;;;;;5051593;28;20052;-61
2023/03/23 13:04:39;;;;;;;10.13;2.87;;;;;;;;;;5051376;28;20056;-61
2023/03/23 13:07:07;;;;;;;10.67;2.50;;;;;;;;;;5051433;28;20103;-61
2023/03/23 13:09:53;;;;;;;8.67;3.47;;;;;;;;;;5050527;28;20052;-61
2023/03/23 13:12:20;;;;;;;11.70;3.00;;;;;;;;;;5050956;28;20546;-61
2023/03/23 13:15:05;;;;;;;10.57;2.73;;;;;;;;;;5049713;28;20111;-61
2023/03/23 13:17:37;;;;;;;11.73;3.63;;;;;;;;;;5050592;28;20057;-61
2023/03/23 13:20:19;;;;;;;12.75;2.92;;;;;;;;;;5051100;28;20045;-61
2023/03/23 13:23:06;;;;;;;11.10;2.90;;;;;;;;;;5050634;28;20414;-61
2023/03/23 13:25:35;;;;;;;11.13;3.03;;;;;;;;;;5050636;28;20088;-62
2023/03/23 13:28:02;;;;;;;9.07;2.57;;;;;;;;;;5050940;28;20115;-61
2023/03/23 13:30:29;;;;;;;9.90;2.23;;;;;;;;;;5050855;28;20415;-61
2023/03/23 13:33:03;;;;;;;9.40;3.03;;;;;;;;;;5050878;28;20060;-61
2023/03/23 13:35:35;;;;;;;13.23;2.77;;;;;;;;;;5050677;28;20052;-61
2023/03/23 13:38:01;;;;;;;13.43;2.83;;;;;;;;;;5050748;28;20396;-61
2023/03/23 13:40:31;;;;;;;7.63;2.70;;;;;;;;;;5050105;28;20063;-61
2023/03/23 13:43:01;;;;;;;13.87;3.60;;;;;;;;;;5050657;28;20045;-61
2023/03/23 13:45:30;;;;;;;16.67;3.67;;;;;;;;;;5050132;28;20049;-61
2023/03/23 13:48:25;;;;;;;12.87;3.60;;;;;;;;;;5050429;28;20049;-60
2023/03/23 13:50:54;;;;;;;11.07;3.20;;;;;;;;;;5050003;28;20087;-61
2023/03/23 13:53:44;;;;;;;12.27;3.53;;;;;;;;;;5049992;28;20388;-60
2023/03/23 13:56:18;;;;;;;14.23;3.10;;;;;;;;;;5050233;28;20103;-60
2023/03/23 13:58:46;;;;;;;17.93;3.17;;;;;;;;;;5050227;28;20053;-61
2023/03/23 14:01:16;;;;;;;13.07;2.80;;;;;;;;;;5050347;28;20080;-60
2023/03/23 14:03:43;;;;;;;9.30;2.10;;;;;;;;;;5050190;28;20128;-61
2023/03/23 14:06:20;;;;;;;12.97;3.00;;;;;;;;;;5049719;28;20128;-61
2023/03/23 14:08:49;;;;;;;11.70;2.73;;;;;;;;;;5030175;28;20385;-61
2023/03/23 14:11:17;;;;;;;9.87;2.30;;;;;;;;;;5030346;28;20045;-60
2023/03/23 14:13:50;;;;;;;9.40;2.20;;;;;;;;;;5029716;28;20095;-60
2023/03/23 14:16:19;;;;;;;5.97;1.93;;;;;;;;;;5029978;28;20419;-61
2023/03/23 14:18:53;;;;;;;8.57;1.90;;;;;;;;;;5029911;28;20045;-60
2023/03/23 14:21:23;;;;;;;10.33;2.50;;;;;;;;;;5033140;28;20574;-60
2023/03/23 14:23:50;;;;;;;7.53;1.90;;;;;;;;;;5048367;28;20084;-61
2023/03/23 14:26:18;;;;;;;12.37;3.67;;;;;;;;;;5048626;28;20167;-60
2023/03/23 14:28:45;;;;;;;10.63;2.40;;;;;;;;;;5045938;28;20045;-60
2023/03/23 14:31:20;;;;;;;13.07;2.90;;;;;;;;;;5040937;28;20044;-60
2023/03/23 14:33:47;;;;;;;11.67;3.30;;;;;;;;;;5047029;28;20049;-60
2023/03/23 14:36:14;;;;;;;8.60;2.33;;;;;;;;;;5038002;28;20040;-61
2023/03/23 14:38:41;;;;;;;9.13;2.27;;;;;;;;;;5037736;28;20041;-61
2023/03/23 14:41:07;;;;;;;9.50;2.67;;;;;;;;;;5037609;28;20053;-61
2023/03/23 14:43:34;;;;;;;8.80;3.23;;;;;;;;;;5039772;28;20134;-61
2023/03/23 14:46:02;;;;;;;11.47;2.97;;;;;;;;;;5030951;28;20132;-61